Time;durP1;ratioP1;P1;durP2;ratioP2;P2;SDS_P1;SDS_P2;PMS_P1;PMS_P2;Temp;Humidity;BMP_temperature;BMP_pressure;BME280_temperature;BME280_humidity;BME280_pressure;Samples;Min_cycle;Max_cycle;Signal;HPM_P1;HPM_P2
2023/04/08 00:00:27;;;;;;;3.83;2.53;;;15.50;1.00;;;;;;5012519;28;20045;-38
2023/04/08 00:02:53;;;;;;;3.17;2.45;;;15.50;1.00;;;;;;5013399;28;20113;-37
2023/04/08 00:05:20;;;;;;;2.95;2.22;;;15.50;1.00;;;;;;5013502;28;20037;-37
2023/04/08 00:07:47;;;;;;;4.00;2.38;;;15.50;1.00;;;;;;5014084;28;20053;-37
2023/04/08 00:10:14;;;;;;;3.05;2.13;;;15.50;1.00;;;;;;5013726;28;20077;-37
2023/04/08 00:12:41;;;;;;;3.55;2.35;;;15.50;1.00;;;;;;5013156;28;20042;-37
2023/04/08 00:15:08;;;;;;;3.20;2.30;;;15.50;1.00;;;;;;4996552;28;20099;-43
2023/04/08 00:17:35;;;;;;;3.10;2.28;;;15.50;1.00;;;;;;5013799;28;20107;-36
2023/04/08 00:20:02;;;;;;;4.50;2.42;;;15.40;1.00;;;;;;5013763;28;20042;-42
2023/04/08 00:22:30;;;;;;;4.43;2.25;;;15.50;1.00;;;;;;4995803;28;20409;-37
2023/04/08 00:24:57;;;;;;;3.47;2.42;;;15.40;1.00;;;;;;5013240;28;20096;-37
2023/04/08 00:27:24;;;;;;;3.33;2.13;;;15.50;1.00;;;;;;5013665;28;20038;-37
2023/04/08 00:29:51;;;;;;;2.70;2.45;;;15.50;1.00;;;;;;5013577;28;20038;-41
2023/04/08 00:32:18;;;;;;;3.83;2.15;;;15.50;1.00;;;;;;5013304;28;20042;-48
2023/04/08 00:34:45;;;;;;;3.03;1.77;;;15.40;1.00;;;;;;4995618;28;20096;-41
2023/04/08 00:37:11;;;;;;;4.97;2.55;;;15.40;1.00;;;;;;5013910;28;20042;-36
2023/04/08 00:39:38;;;;;;;5.35;2.33;;;15.40;1.00;;;;;;5013215;28;20112;-36
2023/04/08 00:42:05;;;;;;;2.42;1.60;;;15.40;1.00;;;;;;5013430;28;20042;-37
2023/04/08 00:44:32;;;;;;;2.97;1.73;;;15.40;1.00;;;;;;4995024;28;20060;-37
2023/04/08 00:46:59;;;;;;;3.28;2.15;;;15.40;1.00;;;;;;5013289;28;20378;-37
2023/04/08 00:49:26;;;;;;;3.17;2.22;;;15.40;1.00;;;;;;5012046;28;20057;-37
2023/04/08 00:51:54;;;;;;;3.28;2.20;;;15.40;1.00;;;;;;4995573;28;20049;-43
2023/04/08 00:54:21;;;;;;;3.20;2.22;;;15.40;1.00;;;;;;4994825;28;20100;-44
2023/04/08 00:56:48;;;;;;;4.25;2.20;;;15.40;1.00;;;;;;5013198;28;20452;-36
2023/04/08 00:59:16;;;;;;;2.95;1.90;;;15.40;1.00;;;;;;4995391;28;20041;-41
2023/04/08 01:02:14;;;;;;;3.63;2.33;;;15.40;1.00;;;;;;5011938;28;20054;-44
2023/04/08 01:05:02;;;;;;;2.85;2.10;;;15.40;1.00;;;;;;5012512;28;20044;-37
2023/04/08 01:07:47;;;;;;;3.15;2.22;;;15.40;1.00;;;;;;4995420;28;20046;-37
2023/04/08 01:10:30;;;;;;;4.30;2.38;;;15.40;1.00;;;;;;5012752;28;20068;-38
2023/04/08 01:13:02;;;;;;;3.50;2.33;;;15.40;1.00;;;;;;5010824;28;20046;-44
2023/04/08 01:15:30;;;;;;;5.68;2.30;;;15.40;1.00;;;;;;5011635;28;20136;-43
2023/04/08 01:17:59;;;;;;;2.90;1.73;;;15.30;1.00;;;;;;4994466;28;20413;-37
2023/04/08 01:20:28;;;;;;;3.03;2.08;;;15.30;1.00;;;;;;5011438;28;20066;-45
2023/04/08 01:22:59;;;;;;;2.55;1.83;;;15.30;1.00;;;;;;5012075;28;20279;-42
2023/04/08 01:25:35;;;;;;;4.65;2.28;;;15.30;1.00;;;;;;4994910;28;20567;-37
2023/04/08 01:28:14;;;;;;;3.25;2.03;;;15.30;1.00;;;;;;4995068;28;20141;-46
2023/04/08 01:30:42;;;;;;;2.85;2.13;;;15.30;1.00;;;;;;5012554;28;20054;-37
2023/04/08 01:33:14;;;;;;;3.35;1.83;;;15.30;1.00;;;;;;5011948;28;20100;-46
2023/04/08 01:35:41;;;;;;;3.53;2.17;;;15.30;1.00;;;;;;5012513;28;20038;-37
2023/04/08 01:38:12;;;;;;;3.60;2.22;;;15.30;1.00;;;;;;5011100;28;20048;-37
2023/04/08 01:40:41;;;;;;;2.70;1.90;;;15.30;1.00;;;;;;5012617;28;20461;-37
2023/04/08 01:43:10;;;;;;;4.03;2.05;;;15.30;1.00;;;;;;5011657;28;20042;-37
2023/04/08 01:45:37;;;;;;;4.03;2.38;;;15.30;1.00;;;;;;5011172;28;20065;-39
2023/04/08 01:48:05;;;;;;;3.13;1.80;;;15.30;1.00;;;;;;5012228;28;20437;-37
2023/04/08 01:50:34;;;;;;;2.30;1.65;;;15.30;1.00;;;;;;4994733;28;20068;-48
2023/04/08 01:53:03;;;;;;;2.45;1.90;;;15.30;1.00;;;;;;5011543;28;20046;-37
2023/04/08 01:55:32;;;;;;;3.88;2.20;;;15.30;1.00;;;;;;4994757;28;20046;-43
2023/04/08 01:58:00;;;;;;;6.05;1.88;;;15.30;1.00;;;;;;5012170;28;20116;-37
2023/04/08 02:00:29;;;;;;;4.43;2.15;;;15.30;1.00;;;;;;4994526;28;20096;-43
2023/04/08 02:02:58;;;;;;;7.22;2.20;;;15.20;1.00;;;;;;4993695;28;20515;-40
2023/04/08 02:05:25;;;;;;;3.63;2.33;;;15.20;1.00;;;;;;5012147;28;20096;-46
2023/04/08 02:07:52;;;;;;;2.72;1.73;;;15.20;1.00;;;;;;4994566;28;20497;-38
2023/04/08 02:10:19;;;;;;;3.95;2.40;;;15.20;1.00;;;;;;5012058;28;20081;-45
2023/04/08 02:12:46;;;;;;;2.58;2.03;;;15.20;1.00;;;;;;5010130;28;20089;-45
2023/04/08 02:15:14;;;;;;;2.72;1.98;;;15.20;1.00;;;;;;5011061;28;20045;-43
2023/04/08 02:17:54;;;;;;;3.38;2.13;;;15.20;1.00;;;;;;5012112;28;20070;-41
2023/04/08 02:20:34;;;;;;;3.08;2.38;;;15.20;1.00;;;;;;4994408;28;20046;-38
2023/04/08 02:23:07;;;;;;;2.83;2.10;;;15.20;1.00;;;;;;5010067;28;20100;-43
2023/04/08 02:25:36;;;;;;;2.75;1.90;;;15.20;1.00;;;;;;4994484;28;20525;-37
2023/04/08 02:28:08;;;;;;;3.80;2.15;;;15.20;1.00;;;;;;5013021;28;20379;-40
2023/04/08 02:30:40;;;;;;;3.85;2.25;;;15.20;1.00;;;;;;5015807;28;20050;-59
2023/04/08 02:33:07;;;;;;;2.70;1.85;;;15.20;1.00;;;;;;5015031;28;20037;-38
2023/04/08 02:35:35;;;;;;;2.95;1.90;;;15.20;1.00;;;;;;5015879;28;20592;-58
2023/04/08 02:38:02;;;;;;;3.78;2.30;;;15.20;1.00;;;;;;5015541;28;20049;-45
2023/04/08 02:40:32;;;;;;;3.85;2.00;;;15.20;1.00;;;;;;4997947;28;20053;-41
2023/04/08 02:42:59;;;;;;;4.10;1.95;;;15.20;1.00;;;;;;5015231;28;20121;-59
2023/04/08 02:45:40;;;;;;;2.88;1.90;;;15.20;1.00;;;;;;4998007;28;20133;-37
2023/04/08 02:48:08;;;;;;;4.78;2.20;;;15.20;1.00;;;;;;5015543;28;20080;-41
2023/04/08 02:50:35;;;;;;;2.65;1.65;;;15.10;1.00;;;;;;5015408;28;20042;-36
2023/04/08 02:53:02;;;;;;;2.35;1.52;;;15.10;1.00;;;;;;4997047;28;20050;-38
2023/04/08 02:55:31;;;;;;;4.57;2.00;;;15.10;1.00;;;;;;5014276;28;20038;-39
2023/04/08 02:57:58;;;;;;;2.70;2.05;;;15.20;1.00;;;;;;5015299;28;20042;-41
2023/04/08 03:00:25;;;;;;;3.00;1.80;;;15.20;1.00;;;;;;5015291;28;20056;-51
2023/04/08 03:02:52;;;;;;;3.92;1.92;;;15.20;1.00;;;;;;5014598;28;20038;-44
2023/04/08 03:05:19;;;;;;;2.90;1.58;;;15.30;1.00;;;;;;5015089;28;20057;-43
2023/04/08 03:07:46;;;;;;;2.13;1.63;;;15.30;1.00;;;;;;5015192;28;20096;-45
2023/04/08 03:10:13;;;;;;;3.15;2.03;;;15.40;1.00;;;;;;5015017;28;20049;-43
2023/04/08 03:12:39;;;;;;;2.78;1.58;;;15.50;1.00;;;;;;5014320;28;20045;-46
2023/04/08 03:15:07;;;;;;;2.13;1.33;;;15.60;1.00;;;;;;5015205;28;20054;-46
2023/04/08 03:17:33;;;;;;;3.25;1.65;;;15.70;1.00;;;;;;5015019;28;20134;-44
2023/04/08 03:20:03;;;;;;;2.28;1.40;;;15.70;1.00;;;;;;5014805;28;20042;-39
2023/04/08 03:22:33;;;;;;;2.42;1.35;;;15.80;1.00;;;;;;5014576;28;20104;-38
2023/04/08 03:25:00;;;;;;;2.58;1.55;;;15.80;1.00;;;;;;5014734;28;20049;-36
2023/04/08 03:27:26;;;;;;;3.50;1.67;;;15.90;1.00;;;;;;4997586;28;20050;-36
2023/04/08 03:29:53;;;;;;;2.83;1.60;;;15.90;1.00;;;;;;5014722;28;20046;-45
2023/04/08 03:32:20;;;;;;;2.60;1.58;;;15.90;1.00;;;;;;5013105;28;20053;-36
2023/04/08 03:34:49;;;;;;;4.90;1.80;;;16.00;1.00;;;;;;5014385;28;20045;-37
2023/04/08 03:37:17;;;;;;;3.75;1.58;;;16.00;1.00;;;;;;5014649;28;20038;-37
2023/04/08 03:39:45;;;;;;;2.33;1.52;;;16.10;1.00;;;;;;5013650;28;20449;-37
2023/04/08 03:42:12;;;;;;;3.17;1.90;;;16.10;1.00;;;;;;5014317;28;20049;-36
2023/04/08 03:44:38;;;;;;;3.15;1.52;;;16.10;1.00;;;;;;5014116;28;20065;-37
2023/04/08 03:47:05;;;;;;;2.05;1.20;;;16.10;1.00;;;;;;5014430;28;20044;-37
2023/04/08 03:49:32;;;;;;;2.88;1.80;;;16.10;1.00;;;;;;5014414;28;20049;-50
2023/04/08 03:51:58;;;;;;;2.13;1.70;;;16.10;1.00;;;;;;5014283;28;20125;-42
2023/04/08 03:54:25;;;;;;;2.30;1.10;;;16.10;1.00;;;;;;5013621;28;20050;-40
2023/04/08 03:56:52;;;;;;;3.08;1.75;;;16.10;1.00;;;;;;5014368;28;20074;-53
2023/04/08 03:59:19;;;;;;;3.25;1.92;;;16.10;1.00;;;;;;5014023;28;20441;-43
2023/04/08 04:01:46;;;;;;;2.80;1.42;;;16.10;1.00;;;;;;5014229;28;20042;-37
2023/04/08 04:04:13;;;;;;;4.20;2.22;;;16.10;1.00;;;;;;5013306;28;20042;-37
2023/04/08 04:06:40;;;;;;;1.65;1.30;;;16.10;1.00;;;;;;5013028;28;20052;-37
2023/04/08 04:09:07;;;;;;;3.35;1.60;;;16.10;1.00;;;;;;5014159;28;20046;-38
2023/04/08 04:11:34;;;;;;;2.20;1.40;;;16.10;1.00;;;;;;5016415;22;20050;-33
2023/04/08 04:14:02;;;;;;;2.80;1.80;;;16.10;1.00;;;;;;5005853;28;20042;-34
2023/04/08 04:16:29;;;;;;;2.60;1.50;;;16.10;1.00;;;;;;5014173;28;20054;-34
2023/04/08 04:18:58;;;;;;;2.72;1.67;;;16.10;1.00;;;;;;5013972;28;20064;-34
2023/04/08 04:21:26;;;;;;;2.80;1.90;;;16.10;1.00;;;;;;5014000;28;20040;-34
2023/04/08 04:23:52;;;;;;;3.10;1.67;;;16.10;1.00;;;;;;5013072;28;20068;-34
2023/04/08 04:26:19;;;;;;;2.55;1.70;;;16.10;1.00;;;;;;5013801;28;20543;-34
2023/04/08 04:28:46;;;;;;;1.83;1.25;;;16.00;1.00;;;;;;5013619;28;20069;-34
2023/04/08 04:31:25;;;;;;;2.95;1.80;;;16.00;1.00;;;;;;5013585;28;20054;-34
2023/04/08 04:33:52;;;;;;;2.42;1.25;;;16.00;1.00;;;;;;5012935;28;20405;-35
2023/04/08 04:36:18;;;;;;;2.70;1.52;;;16.00;1.00;;;;;;5013528;28;20054;-35
2023/04/08 04:38:45;;;;;;;2.78;1.42;;;16.00;1.00;;;;;;5013534;28;20048;-35
2023/04/08 04:41:15;;;;;;;3.75;1.63;;;15.90;1.00;;;;;;5013247;28;20092;-34
2023/04/08 04:43:42;;;;;;;3.10;1.77;;;16.00;1.00;;;;;;5012743;28;20042;-34
2023/04/08 04:46:09;;;;;;;4.18;2.17;;;15.90;1.00;;;;;;5013452;28;20552;-34
2023/04/08 04:48:36;;;;;;;3.58;1.90;;;15.90;1.00;;;;;;5013325;28;20077;-35
2023/04/08 04:51:03;;;;;;;4.47;1.70;;;15.90;1.00;;;;;;5013094;28;20121;-35
2023/04/08 04:53:30;;;;;;;2.42;1.65;;;15.90;1.00;;;;;;5012372;28;20042;-35
2023/04/08 04:56:00;;;;;;;3.47;1.40;;;15.90;1.00;;;;;;5011379;28;20045;-35
2023/04/08 04:58:27;;;;;;;3.08;2.10;;;15.80;1.00;;;;;;4999803;28;20409;-34
2023/04/08 05:00:54;;;;;;;2.17;1.33;;;15.80;1.00;;;;;;4995599;28;20045;-34
2023/04/08 05:03:21;;;;;;;3.85;1.85;;;15.80;1.00;;;;;;4998750;28;20042;-34
2023/04/08 05:05:52;;;;;;;3.28;2.13;;;15.80;1.00;;;;;;5012849;28;20065;-34
2023/04/08 05:08:20;;;;;;;2.03;1.65;;;15.80;1.00;;;;;;5012713;28;20057;-34
2023/04/08 05:10:48;;;;;;;2.05;1.67;;;15.80;1.00;;;;;;5012761;28;20532;-34
2023/04/08 05:13:16;;;;;;;2.47;1.60;;;15.70;1.00;;;;;;5012108;28;20104;-35
2023/04/08 05:15:44;;;;;;;5.55;1.77;;;15.70;1.00;;;;;;5012953;28;20050;-35
2023/04/08 05:18:11;;;;;;;4.05;1.75;;;15.70;1.00;;;;;;5013094;28;20119;-35
2023/04/08 05:20:38;;;;;;;3.47;2.20;;;15.70;1.00;;;;;;5012651;28;20041;-35
2023/04/08 05:23:06;;;;;;;2.50;1.70;;;15.70;1.00;;;;;;5011907;28;20076;-35
2023/04/08 05:25:33;;;;;;;3.40;2.25;;;15.60;1.00;;;;;;5012710;28;20045;-35
2023/04/08 05:28:00;;;;;;;4.70;1.70;;;15.60;1.00;;;;;;5012657;28;20056;-35
2023/04/08 05:30:26;;;;;;;2.60;1.75;;;15.60;1.00;;;;;;5012287;28;20054;-35
2023/04/08 05:32:53;;;;;;;3.17;1.63;;;15.60;1.00;;;;;;5011675;28;20041;-35
2023/04/08 05:35:20;;;;;;;3.30;1.83;;;15.60;1.00;;;;;;5012490;28;20046;-35
2023/04/08 05:37:47;;;;;;;3.33;1.65;;;15.60;1.00;;;;;;5012679;28;20463;-34
2023/04/08 05:40:13;;;;;;;3.83;2.10;;;15.60;1.00;;;;;;5012472;28;20573;-34
2023/04/08 05:42:41;;;;;;;2.70;1.70;;;15.60;1.00;;;;;;5011657;28;20562;-34
2023/04/08 05:45:08;;;;;;;3.80;1.77;;;15.50;1.00;;;;;;5011172;28;20453;-35
2023/04/08 05:47:35;;;;;;;2.40;1.80;;;15.60;1.00;;;;;;5012347;28;20046;-35
2023/04/08 05:50:02;;;;;;;3.25;1.60;;;15.60;1.00;;;;;;5012062;28;20497;-35
2023/04/08 05:52:29;;;;;;;2.53;1.60;;;15.60;1.00;;;;;;5011944;28;20046;-34
2023/04/08 05:54:56;;;;;;;3.97;1.90;;;15.50;1.00;;;;;;5011846;28;20132;-35
2023/04/08 05:57:22;;;;;;;5.13;1.77;;;15.60;1.00;;;;;;5012250;28;20466;-35
2023/04/08 05:59:49;;;;;;;3.25;2.20;;;15.50;1.00;;;;;;5012096;28;20038;-34
2023/04/08 06:02:16;;;;;;;3.58;1.60;;;15.50;1.00;;;;;;5011397;28;20125;-34
2023/04/08 06:04:43;;;;;;;3.85;1.95;;;15.50;1.00;;;;;;5011766;28;20038;-34
2023/04/08 06:07:10;;;;;;;5.88;2.13;;;15.50;1.00;;;;;;5012124;28;20042;-34
2023/04/08 06:09:36;;;;;;;2.80;1.92;;;15.50;1.00;;;;;;5012105;28;20099;-34
2023/04/08 06:12:04;;;;;;;3.00;1.75;;;15.50;1.00;;;;;;5012005;28;20132;-34
2023/04/08 06:14:31;;;;;;;2.95;1.77;;;15.60;1.00;;;;;;5011286;28;20104;-35
2023/04/08 06:16:57;;;;;;;3.55;1.63;;;15.60;1.00;;;;;;5011945;28;20132;-35
2023/04/08 06:19:24;;;;;;;3.28;2.00;;;15.60;1.00;;;;;;5010742;28;20119;-35
2023/04/08 06:21:51;;;;;;;2.85;1.83;;;15.60;1.00;;;;;;5010802;28;20057;-34
2023/04/08 06:24:18;;;;;;;4.25;1.92;;;15.50;1.00;;;;;;5011166;28;20034;-35
2023/04/08 06:26:46;;;;;;;2.67;2.05;;;15.60;1.00;;;;;;5012050;28;20498;-35
2023/04/08 06:29:13;;;;;;;4.35;2.08;;;15.60;1.00;;;;;;5011845;28;20042;-35
2023/04/08 06:31:40;;;;;;;3.30;2.13;;;15.60;1.00;;;;;;5011731;28;20053;-35
2023/04/08 06:34:07;;;;;;;3.15;2.08;;;15.50;1.00;;;;;;5011123;28;20038;-34
2023/04/08 06:36:33;;;;;;;2.72;1.83;;;15.60;1.00;;;;;;5010723;28;20081;-35
2023/04/08 06:39:00;;;;;;;3.35;1.98;;;15.60;1.00;;;;;;5011768;28;20096;-35
2023/04/08 06:41:27;;;;;;;2.55;1.90;;;15.60;1.00;;;;;;5011850;28;20089;-35
2023/04/08 06:44:01;;;;;;;4.80;2.55;;;15.60;1.00;;;;;;5009651;28;20037;-35
2023/04/08 06:46:28;;;;;;;5.28;2.50;;;15.50;1.00;;;;;;5011836;28;20049;-34
2023/04/08 06:48:54;;;;;;;2.92;2.10;;;15.60;1.00;;;;;;5011865;28;20387;-35
2023/04/08 06:51:21;;;;;;;2.53;1.60;;;15.60;1.00;;;;;;5012060;28;20054;-35
2023/04/08 06:53:48;;;;;;;3.65;2.35;;;15.60;1.00;;;;;;5010891;28;20124;-34
2023/04/08 06:56:15;;;;;;;4.15;2.28;;;15.60;1.00;;;;;;5011789;28;20045;-35
2023/04/08 06:58:41;;;;;;;4.85;1.77;;;15.50;1.00;;;;;;5011435;28;20054;-35
2023/04/08 07:01:08;;;;;;;3.47;2.17;;;15.50;1.00;;;;;;5011569;28;20046;-35
2023/04/08 07:03:35;;;;;;;3.05;1.83;;;15.60;1.00;;;;;;5010461;28;20038;-35
2023/04/08 07:06:03;;;;;;;3.58;2.05;;;15.60;1.00;;;;;;5011547;28;20044;-35
2023/04/08 07:08:30;;;;;;;4.72;2.20;;;15.60;1.00;;;;;;5011579;28;20053;-35
2023/04/08 07:10:57;;;;;;;2.83;2.20;;;15.60;1.00;;;;;;5011558;28;20046;-35
2023/04/08 07:13:23;;;;;;;3.40;2.05;;;15.60;1.00;;;;;;5010705;28;20386;-35
2023/04/08 07:15:51;;;;;;;2.60;2.00;;;15.60;1.00;;;;;;5013506;28;20049;-35
2023/04/08 07:18:18;;;;;;;3.67;2.10;;;15.60;1.00;;;;;;5014940;28;20042;-35
2023/04/08 07:20:50;;;;;;;4.40;2.50;;;15.50;1.00;;;;;;5014867;28;20042;-35
2023/04/08 07:23:16;;;;;;;3.85;2.33;;;15.60;1.00;;;;;;5014155;28;20461;-35
2023/04/08 07:25:43;;;;;;;3.75;2.33;;;15.50;1.00;;;;;;5014746;28;20046;-35
2023/04/08 07:28:10;;;;;;;3.25;1.90;;;15.50;1.00;;;;;;5014813;28;20073;-35
2023/04/08 07:30:36;;;;;;;4.53;2.10;;;15.60;1.00;;;;;;5014722;28;20048;-35
2023/04/08 07:33:03;;;;;;;3.85;2.38;;;15.60;1.00;;;;;;5013828;28;20133;-35
2023/04/08 07:35:30;;;;;;;4.88;2.33;;;15.60;1.00;;;;;;5014768;28;20050;-35
2023/04/08 07:37:57;;;;;;;3.80;2.63;;;15.60;1.00;;;;;;5014623;28;20057;-35
2023/04/08 07:40:24;;;;;;;2.97;2.15;;;15.60;1.00;;;;;;5014306;28;20444;-35
2023/04/08 07:42:51;;;;;;;3.80;2.53;;;15.60;1.00;;;;;;5013755;28;20041;-35
2023/04/08 07:45:19;;;;;;;3.88;2.63;;;15.60;1.00;;;;;;5014465;28;20042;-35
2023/04/08 07:47:46;;;;;;;5.10;2.35;;;15.60;1.00;;;;;;5014425;28;20049;-35
2023/04/08 07:50:13;;;;;;;3.85;2.97;;;15.60;1.00;;;;;;5014281;28;20048;-35
2023/04/08 07:52:39;;;;;;;3.70;2.45;;;15.60;1.00;;;;;;5013398;28;20462;-36
2023/04/08 07:55:07;;;;;;;3.28;2.30;;;15.60;1.00;;;;;;5014320;28;20052;-35
2023/04/08 07:57:34;;;;;;;3.45;2.42;;;15.60;1.00;;;;;;5012992;28;20082;-35
2023/04/08 08:00:01;;;;;;;4.20;2.60;;;15.60;1.00;;;;;;5013997;28;20088;-35
2023/04/08 08:02:38;;;;;;;3.35;2.17;;;15.60;1.00;;;;;;5013409;28;20050;-35
2023/04/08 08:05:06;;;;;;;2.92;2.08;;;15.60;1.00;;;;;;5014163;28;20049;-35
2023/04/08 08:07:33;;;;;;;4.03;2.63;;;15.60;1.00;;;;;;5014006;28;20126;-35
2023/04/08 08:10:00;;;;;;;2.85;2.10;;;15.60;1.00;;;;;;5013796;28;20509;-35
2023/04/08 08:12:26;;;;;;;3.97;2.47;;;15.60;1.00;;;;;;5013704;28;20092;-35
2023/04/08 08:14:57;;;;;;;3.15;2.17;;;15.60;1.00;;;;;;5013475;28;20061;-35
2023/04/08 08:17:25;;;;;;;5.03;2.20;;;15.60;1.00;;;;;;5013895;28;20037;-35
2023/04/08 08:19:53;;;;;;;4.35;2.72;;;15.60;1.00;;;;;;5013456;28;20390;-35
2023/04/08 08:22:20;;;;;;;3.42;2.22;;;15.60;1.00;;;;;;5013321;28;20092;-35
2023/04/08 08:24:47;;;;;;;5.47;2.67;;;15.70;1.00;;;;;;5013324;28;20096;-35
2023/04/08 08:27:14;;;;;;;3.92;2.63;;;15.70;1.00;;;;;;5013160;28;20049;-35
2023/04/08 08:29:40;;;;;;;4.32;2.65;;;15.70;1.00;;;;;;5013338;28;20465;-35
2023/04/08 08:32:07;;;;;;;3.80;2.38;;;15.70;1.00;;;;;;5013801;28;20038;-35
2023/04/08 08:34:34;;;;;;;2.95;2.17;;;15.70;1.00;;;;;;5012843;28;20128;-35
2023/04/08 08:37:01;;;;;;;4.45;2.95;;;15.70;1.00;;;;;;5013552;28;20456;-35
2023/04/08 08:39:28;;;;;;;5.43;2.10;;;15.70;1.00;;;;;;5013415;28;20570;-36
2023/04/08 08:41:55;;;;;;;3.67;2.10;;;15.80;1.00;;;;;;5013384;28;20038;-35
2023/04/08 08:44:22;;;;;;;3.35;2.08;;;15.80;1.00;;;;;;5012507;28;20046;-35
2023/04/08 08:46:49;;;;;;;4.13;2.28;;;15.80;1.00;;;;;;5013284;28;20077;-35
2023/04/08 08:49:16;;;;;;;2.83;2.22;;;15.80;1.00;;;;;;5011951;28;20068;-35
2023/04/08 08:51:49;;;;;;;4.05;2.50;;;15.80;1.00;;;;;;5013302;28;20136;-35
2023/04/08 08:54:16;;;;;;;5.22;2.50;;;15.80;1.00;;;;;;5012260;28;20100;-35
2023/04/08 08:56:42;;;;;;;4.18;2.60;;;15.90;1.00;;;;;;5013219;28;20050;-35
2023/04/08 08:59:09;;;;;;;4.55;3.00;;;15.90;1.00;;;;;;5013076;28;20046;-35
2023/04/08 09:01:39;;;;;;;3.35;2.40;;;15.90;1.00;;;;;;5012814;28;20045;-35
2023/04/08 09:04:15;;;;;;;3.17;2.60;;;15.90;1.00;;;;;;5012276;28;20472;-35
2023/04/08 09:06:43;;;;;;;4.70;2.40;;;16.00;1.00;;;;;;5013108;28;20042;-34
2023/04/08 09:09:10;;;;;;;4.63;2.67;;;16.00;1.00;;;;;;5013005;28;20046;-34
2023/04/08 09:11:41;;;;;;;3.13;2.63;;;16.00;1.00;;;;;;5012842;28;20061;-34
2023/04/08 09:14:20;;;;;;;2.95;2.10;;;16.00;1.00;;;;;;5011977;28;20452;-34
2023/04/08 09:16:47;;;;;;;4.35;2.55;;;16.00;1.00;;;;;;5012871;28;20060;-34
2023/04/08 09:19:14;;;;;;;2.78;2.33;;;16.00;1.00;;;;;;5012703;28;20046;-34
2023/04/08 09:21:42;;;;;;;3.97;2.55;;;16.10;1.00;;;;;;5012615;28;20485;-34
2023/04/08 09:24:26;;;;;;;4.45;2.80;;;16.10;1.00;;;;;;5011897;28;20073;-34
2023/04/08 09:26:52;;;;;;;;;;;16.10;1.00;;;;;;5013249;28;20417;-34
2023/04/08 09:29:23;;;;;;;5.28;2.47;;;16.10;1.00;;;;;;5012354;28;19921;-34
2023/04/08 09:31:57;;;;;;;4.13;2.50;;;16.10;1.00;;;;;;5012630;28;20120;-34
2023/04/08 09:34:26;;;;;;;3.95;2.60;;;16.20;1.00;;;;;;5011770;28;20124;-34
2023/04/08 09:36:54;;;;;;;4.57;2.28;;;16.20;1.00;;;;;;5012253;28;20462;-34
2023/04/08 09:39:21;;;;;;;6.40;2.92;;;16.20;1.00;;;;;;5012135;28;20468;-34
2023/04/08 09:41:50;;;;;;;4.60;2.30;;;16.20;1.00;;;;;;5012384;28;20045;-34
2023/04/08 09:44:19;;;;;;;3.88;2.50;;;16.30;1.00;;;;;;5011643;28;20034;-34
2023/04/08 09:46:49;;;;;;;4.28;2.22;;;16.30;1.00;;;;;;5012306;28;20049;-34
2023/04/08 09:49:28;;;;;;;3.47;2.58;;;16.30;1.00;;;;;;5012315;28;20042;-34
2023/04/08 09:52:14;;;;;;;3.15;2.58;;;16.30;1.00;;;;;;5012193;28;20054;-34
2023/04/08 09:55:07;;;;;;;4.13;2.42;;;16.40;1.00;;;;;;5012196;28;20046;-34
2023/04/08 09:57:50;;;;;;;6.50;2.13;;;16.40;1.00;;;;;;5012255;28;20046;-34
2023/04/08 10:00:17;;;;;;;5.40;2.70;;;16.40;1.00;;;;;;5011911;28;20081;-34
2023/04/08 10:03:06;;;;;;;3.35;2.70;;;16.40;1.00;;;;;;5011380;28;20069;-34
2023/04/08 10:05:37;;;;;;;3.38;2.45;;;16.40;1.00;;;;;;5012272;28;20038;-34
2023/04/08 10:08:06;;;;;;;2.88;2.25;;;16.40;1.00;;;;;;5012174;28;20045;-34
2023/04/08 10:10:39;;;;;;;4.15;2.65;;;16.40;1.00;;;;;;5028951;23;20090;-35
2023/04/08 10:13:06;;;;;;;4.40;2.67;;;16.50;1.00;;;;;;5062518;28;20052;-35
2023/04/08 10:15:35;;;;;;;4.18;2.88;;;16.40;1.00;;;;;;5072173;28;20049;-34
2023/04/08 10:18:03;;;;;;;4.22;2.25;;;16.50;1.00;;;;;;5071710;28;20059;-34
2023/04/08 10:20:33;;;;;;;3.80;2.70;;;16.50;1.00;;;;;;5071412;28;20389;-34
2023/04/08 10:23:00;;;;;;;7.05;2.60;;;16.50;1.00;;;;;;5071060;28;20076;-35
2023/04/08 10:25:32;;;;;;;4.38;2.75;;;16.50;1.00;;;;;;5071608;28;20056;-34
2023/04/08 10:28:18;;;;;;;4.38;2.90;;;16.50;1.00;;;;;;5071502;28;20032;-34
2023/04/08 10:30:56;;;;;;;4.10;2.50;;;16.50;1.00;;;;;;5071111;28;20052;-35
2023/04/08 10:33:29;;;;;;;4.22;3.05;;;16.60;1.00;;;;;;5052663;28;20052;-34
2023/04/08 10:35:59;;;;;;;4.03;3.10;;;16.50;1.00;;;;;;5071607;28;20331;-34
2023/04/08 10:38:26;;;;;;;3.88;2.55;;;16.50;1.00;;;;;;5071400;28;20045;-34
2023/04/08 10:40:53;;;;;;;4.22;3.03;;;16.50;1.00;;;;;;5071349;28;20041;-35
2023/04/08 10:43:21;;;;;;;4.72;2.67;;;16.50;1.00;;;;;;5071010;28;20049;-35
2023/04/08 10:45:50;;;;;;;3.25;2.50;;;16.60;1.00;;;;;;5071399;28;20407;-35
2023/04/08 10:48:17;;;;;;;3.20;2.30;;;16.60;1.00;;;;;;5071485;28;20389;-35
2023/04/08 10:51:14;;;;;;;3.60;2.50;;;16.60;1.00;;;;;;5075010;28;20041;-35
2023/04/08 10:53:41;;;;;;;3.10;2.58;;;16.60;1.00;;;;;;5057431;28;20135;-35
2023/04/08 10:56:11;;;;;;;3.92;3.22;;;16.60;1.00;;;;;;5074953;28;20044;-35
2023/04/08 10:58:52;;;;;;;5.15;2.90;;;16.60;1.00;;;;;;5075285;28;20040;-35
2023/04/08 11:01:19;;;;;;;3.72;2.65;;;16.60;1.00;;;;;;5074969;28;20041;-35
2023/04/08 11:03:46;;;;;;;4.45;2.88;;;16.60;1.00;;;;;;5074019;28;20044;-35
2023/04/08 11:06:13;;;;;;;3.35;2.63;;;16.50;1.00;;;;;;5074950;28;20043;-34
2023/04/08 11:08:41;;;;;;;3.90;2.40;;;16.60;1.00;;;;;;5074633;28;20064;-35
2023/04/08 11:11:09;;;;;;;4.03;2.50;;;16.60;1.00;;;;;;5074620;28;20053;-34
2023/04/08 11:13:40;;;;;;;4.40;2.45;;;16.60;1.00;;;;;;5074163;28;20127;-34
2023/04/08 11:16:19;;;;;;;4.78;2.50;;;16.60;1.00;;;;;;5074851;28;20053;-35
2023/04/08 11:18:49;;;;;;;2.85;2.15;;;16.60;1.00;;;;;;5074567;28;20052;-35
2023/04/08 11:21:24;;;;;;;3.58;2.38;;;16.60;1.00;;;;;;5074823;28;20062;-34
2023/04/08 11:23:51;;;;;;;3.45;2.38;;;16.60;1.00;;;;;;5055773;28;20435;-35
2023/04/08 11:26:20;;;;;;;6.38;2.03;;;16.60;1.00;;;;;;5074733;28;20040;-34
2023/04/08 11:28:49;;;;;;;3.97;2.85;;;16.60;1.00;;;;;;5074481;28;20460;-35
2023/04/08 11:31:17;;;;;;;3.38;2.28;;;16.60;1.00;;;;;;5074375;28;20114;-34
2023/04/08 11:33:47;;;;;;;2.03;1.75;;;16.50;1.00;;;;;;5073630;28;20123;-35
2023/04/08 11:36:16;;;;;;;3.13;2.20;;;16.50;1.00;;;;;;5074479;28;20048;-35
2023/04/08 11:38:44;;;;;;;2.90;1.75;;;16.50;1.00;;;;;;5074274;28;20388;-35
2023/04/08 11:41:10;;;;;;;2.65;2.03;;;16.50;1.00;;;;;;5074129;28;20051;-34
2023/04/08 11:43:39;;;;;;;2.92;2.20;;;16.50;1.00;;;;;;5073405;28;20048;-35
2023/04/08 11:46:10;;;;;;;2.70;1.88;;;16.50;1.00;;;;;;5074155;28;20067;-34
2023/04/08 11:48:38;;;;;;;2.70;2.15;;;16.50;1.00;;;;;;5073981;28;20036;-35
2023/04/08 11:51:09;;;;;;;3.10;2.13;;;16.50;1.00;;;;;;5074127;28;20131;-35
2023/04/08 11:53:36;;;;;;;3.53;1.70;;;16.50;1.00;;;;;;5073237;28;20049;-34
2023/04/08 11:56:21;;;;;;;2.92;2.08;;;16.50;1.00;;;;;;5074137;28;20067;-35
2023/04/08 11:58:48;;;;;;;4.25;2.33;;;16.50;1.00;;;;;;5073981;28;20056;-34
2023/04/08 12:01:15;;;;;;;4.47;2.13;;;16.50;1.00;;;;;;5073047;28;20048;-35
2023/04/08 12:03:59;;;;;;;3.33;2.28;;;16.50;1.00;;;;;;5072914;28;20408;-35
2023/04/08 12:06:28;;;;;;;3.47;2.25;;;16.50;1.00;;;;;;5073835;28;20041;-34
2023/04/08 12:08:55;;;;;;;4.72;1.67;;;16.50;1.00;;;;;;5073494;28;20052;-35
2023/04/08 12:11:23;;;;;;;4.05;1.95;;;16.50;1.00;;;;;;5073620;28;20053;-34
2023/04/08 12:13:50;;;;;;;3.90;2.10;;;16.40;1.00;;;;;;5072711;28;20064;-35
2023/04/08 12:16:18;;;;;;;3.20;1.30;;;16.50;1.00;;;;;;5073751;28;20058;-35
2023/04/08 12:18:45;;;;;;;2.20;1.63;;;16.40;1.00;;;;;;5073532;28;20560;-35
2023/04/08 12:21:12;;;;;;;3.55;1.58;;;16.50;1.00;;;;;;5073321;28;20128;-35
2023/04/08 12:23:39;;;;;;;2.15;1.38;;;16.40;1.00;;;;;;5072302;28;20040;-35
2023/04/08 12:26:06;;;;;;;3.17;1.90;;;16.40;1.00;;;;;;5073449;28;20036;-35
2023/04/08 12:28:34;;;;;;;3.38;2.08;;;16.40;1.00;;;;;;5073212;28;20041;-35
2023/04/08 12:31:01;;;;;;;3.45;1.90;;;16.40;1.00;;;;;;5073281;28;20044;-35
2023/04/08 12:33:29;;;;;;;2.08;1.60;;;16.50;1.00;;;;;;5072400;28;20082;-35
2023/04/08 12:35:57;;;;;;;3.00;1.58;;;16.40;1.00;;;;;;5073167;28;20127;-36
2023/04/08 12:38:25;;;;;;;3.00;1.80;;;16.40;1.00;;;;;;5072919;28;20052;-35
2023/04/08 12:40:53;;;;;;;2.55;1.50;;;16.40;1.00;;;;;;5072960;28;20044;-35
2023/04/08 12:43:20;;;;;;;2.25;1.40;;;16.40;1.00;;;;;;5072209;28;20123;-35
2023/04/08 12:45:47;;;;;;;3.33;1.73;;;16.40;1.00;;;;;;5073073;28;20518;-35
2023/04/08 12:48:14;;;;;;;2.53;1.83;;;16.40;1.00;;;;;;5072971;28;20041;-35
2023/04/08 12:50:41;;;;;;;3.45;2.15;;;16.40;1.00;;;;;;5072724;28;20046;-35
2023/04/08 12:53:08;;;;;;;3.50;2.13;;;16.40;1.00;;;;;;5072007;28;20045;-35
2023/04/08 12:55:35;;;;;;;2.60;1.70;;;16.40;1.00;;;;;;5072885;28;20090;-35
2023/04/08 12:58:01;;;;;;;2.92;1.75;;;16.40;1.00;;;;;;5072747;28;20086;-35
2023/04/08 13:00:29;;;;;;;2.75;1.55;;;16.40;1.00;;;;;;5072658;28;20561;-35
2023/04/08 13:02:55;;;;;;;3.08;2.05;;;16.40;1.00;;;;;;5071828;28;20059;-35
2023/04/08 13:05:22;;;;;;;2.47;1.83;;;16.40;1.00;;;;;;5072592;28;20684;-36